Time;durP1;ratioP1;P1;durP2;ratioP2;P2;SDS_P1;SDS_P2;PMS_P1;PMS_P2;Temp;Humidity;BMP_temperature;BMP_pressure;BME280_temperature;BME280_humidity;BME280_pressure;Samples;Min_cycle;Max_cycle;Signal;HPM_P1;HPM_P2
2023/07/08 00:00:18;;;;;;;6.00;4.20;;;;;;;-128.00;-1.00;-1.00;97856;296;1003012;-33
2023/07/08 00:02:44;;;;;;;6.60;5.70;;;;;;;-128.00;-1.00;-1.00;98009;294;1003351;-29
2023/07/08 00:05:11;;;;;;;4.90;4.30;;;;;;;-128.00;-1.00;-1.00;97896;294;1004154;-34
2023/07/08 00:07:38;;;;;;;10.00;6.30;;;;;;;-128.00;-1.00;-1.00;98037;294;1003926;-29
2023/07/08 00:10:17;;;;;;;6.20;5.40;;;;;;;-128.00;-1.00;-1.00;97927;294;1003567;-29
2023/07/08 00:12:43;;;;;;;14.00;4.70;;;;;;;-128.00;-1.00;-1.00;97927;294;1004211;-34
2023/07/08 00:15:09;;;;;;;12.20;4.20;;;;;;;-128.00;-1.00;-1.00;97645;294;1003254;-34
2023/07/08 00:17:35;;;;;;;5.50;4.70;;;;;;;-128.00;-1.00;-1.00;97913;294;1005045;-37
2023/07/08 00:20:01;;;;;;;6.30;4.00;;;;;;;-128.00;-1.00;-1.00;97898;294;1003893;-33
2023/07/08 00:22:27;;;;;;;5.10;4.40;;;;;;;-128.00;-1.00;-1.00;97908;294;1003251;-31
2023/07/08 00:24:53;;;;;;;6.30;5.10;;;;;;;-128.00;-1.00;-1.00;97913;294;1003419;-29
2023/07/08 00:27:19;;;;;;;5.90;4.50;;;;;;;-128.00;-1.00;-1.00;97984;294;1003499;-34
2023/07/08 00:29:44;;;;;;;7.10;4.80;;;;;;;-128.00;-1.00;-1.00;97986;283;1003220;-30
2023/07/08 00:32:14;;;;;;;10.00;6.00;;;;;;;-128.00;-1.00;-1.00;97879;294;1004329;-34
2023/07/08 00:34:41;;;;;;;6.50;4.90;;;;;;;-128.00;-1.00;-1.00;97929;294;1003324;-31
2023/07/08 00:37:13;;;;;;;8.60;6.30;;;;;;;-128.00;-1.00;-1.00;97906;294;1005394;-34
2023/07/08 01:19:02;;;;;;;13.70;7.50;;;;;;;-100.41;16.22;19989.86;77118;295;3006073;-36
2023/07/08 01:21:37;;;;;;;8.30;6.30;;;;;;;-128.00;-1.00;-1.00;42340;295;7504331;-30
2023/07/08 01:24:05;;;;;;;7.00;5.60;;;;;;;-128.00;-1.00;-1.00;76440;295;4121287;-34
2023/07/08 01:26:32;;;;;;;6.60;5.20;;;;;;;-128.00;-1.00;-1.00;28697;311;7504616;-31
2023/07/08 01:28:57;;;;;;;5.40;4.30;;;;;;;-128.00;-1.00;-1.00;47466;295;7504062;-30
2023/07/08 01:31:23;;;;;;;6.60;5.00;;;;;;;-128.00;-1.00;-1.00;83851;295;7354690;-34
2023/07/08 01:33:50;;;;;;;10.90;4.40;;;;;;;-128.00;-1.00;-1.00;97881;295;1004256;-34
2023/07/08 01:36:16;;;;;;;7.90;4.80;;;;;;;-128.00;-1.00;-1.00;97770;296;1004483;-32
2023/07/08 01:38:42;;;;;;;17.20;4.70;;;;;;;-128.00;-1.00;-1.00;86571;295;5032301;-29
2023/07/08 01:41:11;;;;;;;6.70;4.70;;;;;;;-128.00;-1.00;-1.00;86529;298;3002940;-38
2023/07/08 01:43:36;;;;;;;8.30;5.50;;;;;;;-128.00;-1.00;-1.00;95992;283;2726599;-34
2023/07/08 01:46:02;;;;;;;5.60;4.50;;;;;;;-128.00;-1.00;-1.00;97804;295;1004290;-31
2023/07/08 01:48:30;;;;;;;5.40;4.20;;;;;;;-128.00;-1.00;-1.00;97861;294;1005011;-33
2023/07/08 01:51:01;;;;;;;6.20;5.10;;;;;;;-128.00;-1.00;-1.00;97062;295;1003829;-31
2023/07/08 01:53:30;;;;;;;7.10;5.30;;;;;;;-128.00;-1.00;-1.00;97838;295;1002664;-31
2023/07/08 01:55:56;;;;;;;6.40;4.90;;;;;;;-128.00;-1.00;-1.00;97826;297;1003918;-35
2023/07/08 01:58:21;;;;;;;9.10;5.00;;;;;;;-128.00;-1.00;-1.00;97976;295;1004106;-34
2023/07/08 02:00:48;;;;;;;7.70;4.90;;;;;;;-128.00;-1.00;-1.00;98024;295;1004553;-30
2023/07/08 02:03:17;;;;;;;5.80;5.30;;;;;;;-128.00;-1.00;-1.00;97968;295;1004257;-34
2023/07/08 02:05:43;;;;;;;6.40;3.70;;;;;;;-128.00;-1.00;-1.00;97801;296;1003235;-31
2023/07/08 02:08:09;;;;;;;5.40;4.30;;;;;;;-128.00;-1.00;-1.00;98077;295;1003038;-34
2023/07/08 02:10:38;;;;;;;4.60;4.00;;;;;;;-128.00;-1.00;-1.00;97803;296;1003217;-32
2023/07/08 02:13:03;;;;;;;5.90;4.90;;;;;;;-128.00;-1.00;-1.00;98174;294;1003162;-32
2023/07/08 02:15:29;;;;;;;8.00;4.70;;;;;;;-128.00;-1.00;-1.00;97976;295;1002968;-38
2023/07/08 02:17:55;;;;;;;8.10;4.50;;;;;;;-128.00;-1.00;-1.00;97932;295;1003182;-35
2023/07/08 02:20:22;;;;;;;9.10;4.20;;;;;;;-128.00;-1.00;-1.00;97906;295;1004312;-34
2023/07/08 02:22:48;;;;;;;4.50;3.60;;;;;;;-128.00;-1.00;-1.00;98010;295;1004358;-35
2023/07/08 02:25:13;;;;;;;7.50;3.50;;;;;;;-128.00;-1.00;-1.00;97744;295;1003228;-31
2023/07/08 02:27:39;;;;;;;6.00;4.20;;;;;;;-128.00;-1.00;-1.00;97787;295;1003162;-37
2023/07/08 02:30:06;;;;;;;17.80;4.40;;;;;;;-128.00;-1.00;-1.00;97847;295;1003879;-30
2023/07/08 02:32:34;;;;;;;5.70;4.10;;;;;;;-128.00;-1.00;-1.00;95697;295;3002880;-30
2023/07/08 02:35:00;;;;;;;4.20;3.50;;;;;;;-128.00;-1.00;-1.00;97904;295;1003754;-34
2023/07/08 02:37:25;;;;;;;5.20;3.60;;;;;;;-128.00;-1.00;-1.00;97776;295;1002902;-30
2023/07/08 02:39:51;;;;;;;2.90;2.20;;;;;;;-128.00;-1.00;-1.00;97806;295;1003336;-34
2023/07/08 02:42:17;;;;;;;3.00;2.30;;;;;;;-128.00;-1.00;-1.00;98001;295;1003687;-29
2023/07/08 02:44:42;;;;;;;4.30;2.50;;;;;;;-128.00;-1.00;-1.00;97820;295;1005097;-31
2023/07/08 02:47:08;;;;;;;5.10;3.40;;;;;;;-128.00;-1.00;-1.00;97794;285;1003563;-37
2023/07/08 02:49:34;;;;;;;2.60;2.30;;;;;;;-128.00;-1.00;-1.00;98041;295;1003362;-35
2023/07/08 02:51:59;;;;;;;3.50;2.30;;;;;;;-128.00;-1.00;-1.00;97826;295;1003129;-31
2023/07/08 02:54:25;;;;;;;3.40;2.50;;;;;;;-128.00;-1.00;-1.00;97866;295;1002879;-35
2023/07/08 02:56:50;;;;;;;4.80;3.40;;;;;;;-128.00;-1.00;-1.00;97834;295;1003682;-30
2023/07/08 02:59:16;;;;;;;6.10;4.20;;;;;;;-128.00;-1.00;-1.00;97778;297;1003416;-35
2023/07/08 03:01:41;;;;;;;5.50;4.50;;;;;;;-128.00;-1.00;-1.00;97819;295;1002947;-31
2023/07/08 03:04:12;;;;;;;8.40;3.70;;;;;;;-128.00;-1.00;-1.00;97926;295;1004835;-35
2023/07/08 03:06:40;;;;;;;3.80;3.00;;;;;;;-128.00;-1.00;-1.00;97989;295;1004228;-30
2023/07/08 03:09:06;;;;;;;8.40;4.00;;;;;;;-128.00;-1.00;-1.00;97985;295;1003028;-31
2023/07/08 03:11:32;;;;;;;2.50;1.60;;;;;;;-128.00;-1.00;-1.00;97781;295;1003030;-35
2023/07/08 03:13:58;;;;;;;2.70;1.90;;;;;;;-128.00;-1.00;-1.00;97808;295;1003299;-38
2023/07/08 03:16:23;;;;;;;2.30;1.30;;;;;;;-128.00;-1.00;-1.00;97791;295;1002668;-35
2023/07/08 03:18:49;;;;;;;3.10;1.80;;;;;;;-128.00;-1.00;-1.00;97992;295;1004305;-35
2023/07/08 03:21:16;;;;;;;12.00;2.30;;;;;;;-128.00;-1.00;-1.00;97873;283;1003256;-31
2023/07/08 03:23:42;;;;;;;2.80;2.50;;;;;;;-128.00;-1.00;-1.00;98028;295;1003038;-31
2023/07/08 03:26:13;;;;;;;6.50;3.30;;;;;;;-128.00;-1.00;-1.00;97926;295;1002893;-36
2023/07/08 03:28:38;;;;;;;6.20;3.80;;;;;;;-128.00;-1.00;-1.00;97986;287;1003828;-31
2023/07/08 03:31:04;;;;;;;4.90;2.70;;;;;;;-128.00;-1.00;-1.00;97883;295;1002982;-32
2023/07/08 03:33:30;;;;;;;4.40;2.50;;;;;;;-128.00;-1.00;-1.00;97909;295;1002941;-36
2023/07/08 03:35:55;;;;;;;3.80;3.50;;;;;;;-128.00;-1.00;-1.00;97775;283;1003178;-31
2023/07/08 03:38:22;;;;;;;4.90;3.70;;;;;;;-128.00;-1.00;-1.00;97914;295;1003253;-34
2023/07/08 03:40:48;;;;;;;9.20;4.80;;;;;;;-128.00;-1.00;-1.00;97791;295;1003277;-29
2023/07/08 03:43:14;;;;;;;4.60;3.90;;;;;;;-128.00;-1.00;-1.00;97755;295;1004606;-29
2023/07/08 03:45:39;;;;;;;3.50;3.10;;;;;;;-128.00;-1.00;-1.00;97830;295;1003512;-34
2023/07/08 03:48:05;;;;;;;4.30;3.50;;;;;;;-128.00;-1.00;-1.00;97843;295;1003167;-34
2023/07/08 03:50:31;;;;;;;5.10;3.60;;;;;;;-128.00;-1.00;-1.00;97932;295;1003944;-36
2023/07/08 03:52:57;;;;;;;5.90;3.10;;;;;;;-128.00;-1.00;-1.00;97845;295;1002960;-31
2023/07/08 03:55:23;;;;;;;3.90;3.20;;;;;;;-128.00;-1.00;-1.00;98045;295;1002879;-37
2023/07/08 03:57:49;;;;;;;3.30;2.80;;;;;;;-128.00;-1.00;-1.00;98186;295;1003092;-37
2023/07/08 04:00:15;;;;;;;4.50;3.30;;;;;;;-128.00;-1.00;-1.00;97867;295;1003484;-42
2023/07/08 04:02:42;;;;;;;5.60;2.90;;;;;;;-128.00;-1.00;-1.00;98068;295;1004806;-42
2023/07/08 04:05:17;;;;;;;4.10;2.80;;;;;;;-128.00;-1.00;-1.00;97989;295;1003157;-38
2023/07/08 04:07:43;;;;;;;4.20;3.80;;;;;;;-128.00;-1.00;-1.00;97952;295;1003380;-36
2023/07/08 04:10:09;;;;;;;13.90;3.10;;;;;;;-128.00;-1.00;-1.00;98020;295;1003150;-42
2023/07/08 04:12:36;;;;;;;3.70;2.80;;;;;;;-128.00;-1.00;-1.00;98056;295;1004782;-34
2023/07/08 04:15:02;;;;;;;9.60;2.90;;;;;;;-128.00;-1.00;-1.00;97843;295;1003111;-33
2023/07/08 04:17:28;;;;;;;4.30;2.50;;;;;;;-128.00;-1.00;-1.00;97914;295;1004570;-35
2023/07/08 04:19:56;;;;;;;9.10;2.90;;;;;;;-128.00;-1.00;-1.00;97912;295;1002988;-34
2023/07/08 04:22:23;;;;;;;3.50;2.90;;;;;;;-128.00;-1.00;-1.00;97845;283;1004125;-35
2023/07/08 04:24:49;;;;;;;4.50;2.70;;;;;;;-128.00;-1.00;-1.00;98048;295;1005327;-30
2023/07/08 04:27:16;;;;;;;2.90;2.40;;;;;;;-128.00;-1.00;-1.00;97909;295;1004048;-31
2023/07/08 04:29:42;;;;;;;3.80;2.70;;;;;;;-128.00;-1.00;-1.00;98136;287;1003844;-36
2023/07/08 04:32:08;;;;;;;2.70;2.40;;;;;;;-128.00;-1.00;-1.00;97962;295;1003288;-35
2023/07/08 04:34:34;;;;;;;5.10;3.30;;;;;;;-128.00;-1.00;-1.00;97994;295;1003518;-30
2023/07/08 04:36:59;;;;;;;3.60;2.80;;;;;;;-128.00;-1.00;-1.00;97982;295;1004136;-31
2023/07/08 04:39:25;;;;;;;3.90;3.10;;;;;;;-128.00;-1.00;-1.00;97900;295;1004686;-39
2023/07/08 04:41:50;;;;;;;3.30;2.40;;;;;;;-128.00;-1.00;-1.00;97940;295;1003704;-37
2023/07/08 04:44:19;;;;;;;2.70;2.10;;;;;;;-128.00;-1.00;-1.00;97869;295;1003808;-37
2023/07/08 04:46:47;;;;;;;6.60;3.20;;;;;;;-128.00;-1.00;-1.00;97870;295;1003402;-33
2023/07/08 04:49:13;;;;;;;6.90;2.70;;;;;;;-128.00;-1.00;-1.00;97925;295;1003247;-30
2023/07/08 04:51:40;;;;;;;5.30;3.10;;;;;;;-128.00;-1.00;-1.00;97917;295;1003518;-36
2023/07/08 04:54:06;;;;;;;4.80;2.40;;;;;;;-128.00;-1.00;-1.00;97760;295;1003167;-32
2023/07/08 04:56:39;;;;;;;5.50;3.10;;;;;;;-128.00;-1.00;-1.00;98027;295;1003357;-36
2023/07/08 04:59:05;;;;;;;3.10;2.70;;;;;;;-128.00;-1.00;-1.00;97783;284;1002948;-36
2023/07/08 05:01:31;;;;;;;3.20;2.60;;;;;;;-128.00;-1.00;-1.00;97825;295;1003783;-37
2023/07/08 05:03:56;;;;;;;3.00;2.10;;;;;;;-128.00;-1.00;-1.00;97894;295;1003508;-31
2023/07/08 05:06:22;;;;;;;2.70;2.40;;;;;;;-128.00;-1.00;-1.00;97963;295;1004013;-31
2023/07/08 05:08:47;;;;;;;2.50;2.10;;;;;;;-128.00;-1.00;-1.00;97939;284;1003604;-31
2023/07/08 05:11:13;;;;;;;3.70;2.80;;;;;;;-128.00;-1.00;-1.00;97863;295;1004431;-36
2023/07/08 05:13:39;;;;;;;6.40;3.00;;;;;;;-128.00;-1.00;-1.00;97951;295;1003279;-35
2023/07/08 05:16:05;;;;;;;4.90;3.30;;;;;;;-128.00;-1.00;-1.00;98026;295;1002908;-35
2023/07/08 05:18:30;;;;;;;3.50;3.00;;;;;;;-128.00;-1.00;-1.00;97994;295;1004460;-32
2023/07/08 05:20:56;;;;;;;2.90;2.40;;;;;;;-128.00;-1.00;-1.00;97829;295;1003770;-37
2023/07/08 05:23:22;;;;;;;4.90;2.80;;;;;;;-128.00;-1.00;-1.00;97840;295;1003709;-35
2023/07/08 05:25:48;;;;;;;5.00;3.30;;;;;;;-128.00;-1.00;-1.00;97934;295;1004786;-37
2023/07/08 05:28:13;;;;;;;3.30;3.00;;;;;;;-128.00;-1.00;-1.00;97887;295;1003020;-37
2023/07/08 05:30:40;;;;;;;3.30;2.60;;;;;;;-128.00;-1.00;-1.00;97986;295;1005456;-32
2023/07/08 05:33:07;;;;;;;3.50;2.90;;;;;;;-128.00;-1.00;-1.00;97842;295;1003851;-34
2023/07/08 05:35:32;;;;;;;3.60;2.50;;;;;;;-128.00;-1.00;-1.00;97946;295;1003160;-35
2023/07/08 05:37:58;;;;;;;3.10;2.40;;;;;;;-128.00;-1.00;-1.00;97973;295;1003210;-33
2023/07/08 05:40:23;;;;;;;4.70;3.20;;;;;;;-128.00;-1.00;-1.00;97843;295;1003159;-31
2023/07/08 05:42:49;;;;;;;3.30;2.60;;;;;;;-128.00;-1.00;-1.00;97882;295;1002814;-35
2023/07/08 05:45:15;;;;;;;6.40;3.30;;;;;;;-128.00;-1.00;-1.00;97769;295;1003991;-32
2023/07/08 05:47:40;;;;;;;4.20;2.70;;;;;;;-128.00;-1.00;-1.00;97784;295;1003257;-37
2023/07/08 05:50:07;;;;;;;4.40;3.50;;;;;;;-128.00;-1.00;-1.00;97937;295;1003132;-32
2023/07/08 05:52:32;;;;;;;5.40;3.70;;;;;;;-128.00;-1.00;-1.00;97932;295;1003888;-32
2023/07/08 05:54:58;;;;;;;2.60;2.30;;;;;;;-128.00;-1.00;-1.00;97931;295;1003961;-35
2023/07/08 05:57:23;;;;;;;3.20;2.60;;;;;;;-128.00;-1.00;-1.00;97990;295;1004131;-36
2023/07/08 05:59:50;;;;;;;3.50;2.50;;;;;;;-128.00;-1.00;-1.00;97888;295;1002947;-36
2023/07/08 06:02:16;;;;;;;2.70;2.10;;;;;;;-128.00;-1.00;-1.00;97958;295;1003485;-29
2023/07/08 06:04:42;;;;;;;4.60;2.20;;;;;;;-128.00;-1.00;-1.00;97946;295;1003489;-32
2023/07/08 06:07:08;;;;;;;5.90;2.70;;;;;;;-128.00;-1.00;-1.00;97928;295;1003124;-39
2023/07/08 06:09:33;;;;;;;3.60;2.70;;;;;;;-128.00;-1.00;-1.00;97930;295;1004977;-31
2023/07/08 06:11:59;;;;;;;2.50;2.30;;;;;;;-128.00;-1.00;-1.00;98060;295;1004168;-31
2023/07/08 06:14:27;;;;;;;3.30;2.70;;;;;;;-128.00;-1.00;-1.00;97910;295;1003829;-32
2023/07/08 06:16:54;;;;;;;3.70;2.40;;;;;;;-128.00;-1.00;-1.00;97930;295;1003076;-32
2023/07/08 06:19:20;;;;;;;4.10;2.20;;;;;;;-128.00;-1.00;-1.00;97863;295;1003561;-36
2023/07/08 06:21:46;;;;;;;3.20;2.20;;;;;;;-128.00;-1.00;-1.00;97885;295;1004339;-36
2023/07/08 06:24:11;;;;;;;2.40;1.60;;;;;;;-128.00;-1.00;-1.00;97761;295;1005171;-32
2023/07/08 06:26:37;;;;;;;3.90;2.10;;;;;;;-128.00;-1.00;-1.00;97939;287;1002809;-32
2023/07/08 06:29:03;;;;;;;5.30;2.40;;;;;;;-128.00;-1.00;-1.00;97941;295;1005359;-35
2023/07/08 06:31:29;;;;;;;7.40;2.10;;;;;;;-128.00;-1.00;-1.00;97928;295;1004756;-36
2023/07/08 06:33:54;;;;;;;3.70;2.30;;;;;;;-128.00;-1.00;-1.00;97946;295;1002613;-37
2023/07/08 06:36:20;;;;;;;4.40;2.70;;;;;;;-128.00;-1.00;-1.00;97851;295;1003802;-35
2023/07/08 06:38:46;;;;;;;2.80;1.70;;;;;;;-128.00;-1.00;-1.00;97946;295;1002474;-35
2023/07/08 06:41:11;;;;;;;9.30;1.90;;;;;;;-128.00;-1.00;-1.00;97767;295;1005147;-35
2023/07/08 06:43:37;;;;;;;1.80;1.60;;;;;;;-128.00;-1.00;-1.00;97791;295;1004151;-31
2023/07/08 06:46:02;;;;;;;2.70;1.80;;;;;;;-128.00;-1.00;-1.00;97730;288;1003323;-32
2023/07/08 06:48:28;;;;;;;2.80;1.50;;;;;;;-128.00;-1.00;-1.00;97884;295;1003759;-37
2023/07/08 06:50:54;;;;;;;2.60;2.50;;;;;;;-128.00;-1.00;-1.00;97899;295;1003548;-36
2023/07/08 06:53:20;;;;;;;2.60;2.30;;;;;;;-128.00;-1.00;-1.00;97896;295;1004009;-37
2023/07/08 06:55:46;;;;;;;3.40;1.80;;;;;;;-128.00;-1.00;-1.00;97810;283;1003540;-35
2023/07/08 06:58:12;;;;;;;3.00;2.00;;;;;;;-128.00;-1.00;-1.00;98044;295;1002979;-33
2023/07/08 07:00:38;;;;;;;3.00;1.90;;;;;;;-128.00;-1.00;-1.00;97916;295;1002705;-31
2023/07/08 07:03:03;;;;;;;2.50;1.60;;;;;;;-128.00;-1.00;-1.00;97922;295;1003214;-37
2023/07/08 07:05:29;;;;;;;3.50;2.60;;;;;;;-128.00;-1.00;-1.00;97097;287;1003750;-31
2023/07/08 07:07:56;;;;;;;3.10;1.70;;;;;;;-128.00;-1.00;-1.00;97922;294;1003598;-35
2023/07/08 07:10:22;;;;;;;4.00;2.20;;;;;;;-128.00;-1.00;-1.00;97972;285;1003719;-32
2023/07/08 07:12:47;;;;;;;2.30;1.70;;;;;;;-128.00;-1.00;-1.00;97966;294;1002928;-35
2023/07/08 07:15:13;;;;;;;4.70;2.00;;;;;;;-128.00;-1.00;-1.00;98064;294;1003386;-31
2023/07/08 07:17:38;;;;;;;4.30;2.70;;;;;;;-128.00;-1.00;-1.00;97804;294;1003040;-37
2023/07/08 07:20:05;;;;;;;3.10;2.00;;;;;;;-128.00;-1.00;-1.00;97797;294;1002736;-32
2023/07/08 07:22:31;;;;;;;4.30;2.10;;;;;;;-128.00;-1.00;-1.00;97917;294;1003367;-33
2023/07/08 07:24:56;;;;;;;4.30;2.30;;;;;;;-128.00;-1.00;-1.00;97830;297;1002829;-36
2023/07/08 07:27:22;;;;;;;4.90;2.10;;;;;;;-128.00;-1.00;-1.00;97932;294;1002857;-37
2023/07/08 07:29:49;;;;;;;2.90;1.90;;;;;;;-128.00;-1.00;-1.00;97882;294;1003191;-34
2023/07/08 07:32:15;;;;;;;8.50;1.90;;;;;;;-128.00;-1.00;-1.00;98093;294;1004002;-33
2023/07/08 07:34:41;;;;;;;5.10;1.90;;;;;;;-128.00;-1.00;-1.00;97900;294;1003049;-35
2023/07/08 07:37:11;;;;;;;3.80;1.60;;;;;;;-128.00;-1.00;-1.00;97869;294;1003145;-32
2023/07/08 07:39:37;;;;;;;5.40;2.10;;;;;;;-128.00;-1.00;-1.00;97988;294;1002562;-37
2023/07/08 07:42:03;;;;;;;3.50;1.80;;;;;;;-128.00;-1.00;-1.00;97995;294;1004465;-35
2023/07/08 07:44:28;;;;;;;2.30;1.40;;;;;;;-128.00;-1.00;-1.00;97969;294;1002962;-30
2023/07/08 07:46:54;;;;;;;3.50;2.20;;;;;;;-128.00;-1.00;-1.00;97928;285;1002691;-30
2023/07/08 07:49:20;;;;;;;8.50;2.00;;;;;;;-128.00;-1.00;-1.00;97844;285;1002726;-32
2023/07/08 07:51:46;;;;;;;2.70;1.70;;;;;;;-128.00;-1.00;-1.00;97939;294;1003884;-33
2023/07/08 07:54:12;;;;;;;2.60;1.30;;;;;;;-128.00;-1.00;-1.00;97948;287;1003688;-35
2023/07/08 07:56:37;;;;;;;2.60;1.40;;;;;;;-128.00;-1.00;-1.00;98038;294;1004053;-32
2023/07/08 07:59:03;;;;;;;2.10;1.60;;;;;;;-128.00;-1.00;-1.00;97959;294;1003216;-38
2023/07/08 08:01:29;;;;;;;3.50;2.10;;;;;;;-128.00;-1.00;-1.00;98047;294;1003861;-31
2023/07/08 08:09:55;;;;;;;2.30;1.20;;;;;;;;;;100970;301;542650;-31
2023/07/08 08:12:24;;;;;;;3.30;1.10;;;;;;;;;;101056;302;22583;-34
2023/07/08 08:14:50;;;;;;;1.80;1.40;;;;;;;;;;101072;302;22892;-35
2023/07/08 08:17:16;;;;;;;1.20;1.10;;;;;;;;;;101227;302;22586;-30
2023/07/08 08:19:41;;;;;;;3.50;1.70;;;;;;;;;;101020;302;22795;-39
2023/07/08 08:22:06;;;;;;;3.00;1.40;;;;;;;;;;101075;302;22672;-36
2023/07/08 08:24:33;;;;;;;1.30;1.00;;;;;;;;;;100892;302;462331;-35
2023/07/08 08:26:58;;;;;;;2.50;1.50;;;;;;;;;;101116;300;22578;-32
2023/07/08 08:29:24;;;;;;;2.30;1.30;;;;;;;;;;101216;300;24267;-32
2023/07/08 08:31:50;;;;;;;1.20;1.00;;;;;;;;;;101077;300;22676;-32
2023/07/08 08:34:17;;;;;;;3.60;1.60;;;;;;;;;;101135;289;22643;-32
2023/07/08 08:36:42;;;;;;;3.00;1.40;;;;;;;;;;101091;289;24724;-32
2023/07/08 08:39:08;;;;;;;1.50;1.30;;;;;;;;;;101035;289;23131;-31
2023/07/08 08:41:34;;;;;;;7.80;1.40;;;;;;;;;;101034;302;24100;-40
2023/07/08 08:44:00;;;;;;;1.40;1.30;;;;;;;;;;101045;289;22588;-31
2023/07/08 08:46:34;;;;;;;2.30;0.70;;;;;;;;;;101277;289;22679;-37
2023/07/08 08:49:11;;;;;;;3.00;1.30;;;;;;;;;;101138;300;22623;-37
2023/07/08 08:51:37;;;;;;;1.50;1.20;;;;;;;;;;101222;300;24114;-34
2023/07/08 08:54:03;;;;;;;2.50;1.30;;;;;;;;;;101065;300;22591;-35
2023/07/08 08:56:29;;;;;;;3.30;1.50;;;;;;;;;;101032;300;22583;-31
2023/07/08 08:59:00;;;;;;;1.90;1.00;;;;;;;;;;101294;289;22680;-34
2023/07/08 09:01:26;;;;;;;3.20;0.90;;;;;;;;;;101422;300;22887;-32
2023/07/08 09:03:59;;;;;;;3.00;1.30;;;;;;;;;;101145;301;22680;-32
2023/07/08 09:06:25;;;;;;;1.00;0.90;;;;;;;;;;101098;300;22585;-31
2023/07/08 09:08:51;;;;;;;1.80;1.20;;;;;;;;;;101163;289;24189;-35
2023/07/08 09:11:28;;;;;;;1.60;0.90;;;;;;;;;;101089;289;22579;-35
2023/07/08 09:13:54;;;;;;;2.30;1.30;;;;;;;;;;101361;300;22579;-36
2023/07/08 09:16:31;;;;;;;1.30;0.80;;;;;;;;;;101076;289;22571;-35
2023/07/08 09:18:59;;;;;;;1.00;0.90;;;;;;;;;;101064;289;24079;-34
2023/07/08 09:21:31;;;;;;;0.90;0.80;;;;;;;;;;101130;300;23191;-35
2023/07/08 09:24:00;;;;;;;1.60;0.80;;;;;;;;;;101108;301;23037;-35
2023/07/08 09:26:25;;;;;;;1.20;0.80;;;;;;;;;;101087;302;22664;-35
2023/07/08 09:28:51;;;;;;;2.00;0.90;;;;;;;;;;101041;300;22588;-35
2023/07/08 09:31:28;;;;;;;2.90;1.10;;;;;;;;;;101084;301;22886;-35
2023/07/08 09:33:54;;;;;;;2.30;0.60;;;;;;;;;;101240;300;22576;-35
2023/07/08 09:36:24;;;;;;;1.90;0.90;;;;;;;;;;101050;300;24952;-33
2023/07/08 09:38:49;;;;;;;1.20;0.90;;;;;;;;;;101172;300;25385;-35
2023/07/08 09:41:18;;;;;;;1.30;1.00;;;;;;;;;;101142;300;22694;-35
2023/07/08 09:43:44;;;;;;;1.00;0.90;;;;;;;;;;101106;300;22696;-31
2023/07/08 09:46:11;;;;;;;0.80;0.70;;;;;;;;;;101126;289;22588;-32
2023/07/08 09:48:37;;;;;;;1.50;1.20;;;;;;;;;;101023;289;22582;-35
2023/07/08 09:51:02;;;;;;;1.80;0.90;;;;;;;;;;101192;300;23013;-31
2023/07/08 09:53:29;;;;;;;2.70;1.00;;;;;;;;;;101276;301;24146;-31
2023/07/08 09:55:56;;;;;;;1.50;1.00;;;;;;;;;;100987;300;22578;-35
2023/07/08 09:58:23;;;;;;;4.70;1.40;;;;;;;;;;101142;300;22965;-33
2023/07/08 10:00:51;;;;;;;13.70;1.20;;;;;;;;;;101086;301;22729;-31
2023/07/08 10:03:20;;;;;;;2.00;1.30;;;;;;;;;;101220;300;22580;-35
2023/07/08 10:05:46;;;;;;;0.80;0.80;;;;;;;;;;101067;300;22585;-33
2023/07/08 10:08:15;;;;;;;1.30;1.00;;;;;;;;;;101015;301;22611;-37
2023/07/08 10:10:41;;;;;;;1.10;0.90;;;;;;;;;;101062;301;24197;-32
2023/07/08 10:13:18;;;;;;;1.20;0.90;;;;;;;;;;101077;300;22580;-36
2023/07/08 10:15:46;;;;;;;1.10;0.70;;;;;;;;;;101070;300;23799;-36
2023/07/08 10:18:14;;;;;;;0.90;0.80;;;;;;;;;;101060;300;24042;-33
2023/07/08 10:20:45;;;;;;;4.10;1.60;;;;;;;;;;101036;301;22598;-32
2023/07/08 10:23:22;;;;;;;1.30;0.90;;;;;;;;;;101025;301;22586;-35
2023/07/08 10:25:55;;;;;;;3.00;1.10;;;;;;;;;;101193;301;22580;-35
2023/07/08 10:28:31;;;;;;;2.10;1.00;;;;;;;;;;101313;301;22677;-35
2023/07/08 10:31:07;;;;;;;0.80;0.80;;;;;;;;;;101051;289;22999;-35
2023/07/08 10:33:45;;;;;;;0.90;0.60;;;;;;;;;;101300;300;22790;-31
2023/07/08 10:36:19;;;;;;;1.60;1.00;;;;;;;;;;101106;300;22592;-31
2023/07/08 10:38:49;;;;;;;1.70;1.10;;;;;;;;;;101052;289;22583;-35
2023/07/08 10:41:27;;;;;;;1.70;1.20;;;;;;;;;;101006;301;22597;-31
2023/07/08 10:44:05;;;;;;;1.50;1.10;;;;;;;;;;101023;301;23017;-35
2023/07/08 10:46:42;;;;;;;2.10;1.20;;;;;;;;;;101093;301;22677;-33
2023/07/08 10:49:20;;;;;;;0.80;0.70;;;;;;;;;;101197;301;22608;-31
2023/07/08 10:51:55;;;;;;;2.40;1.10;;;;;;;;;;101176;300;22591;-32
2023/07/08 10:54:33;;;;;;;1.20;1.00;;;;;;;;;;101077;300;22584;-33
2023/07/08 10:57:11;;;;;;;3.50;0.90;;;;;;;;;;101115;301;22583;-36
2023/07/08 10:59:44;;;;;;;2.10;1.40;;;;;;;;;;101292;301;22606;-35
2023/07/08 11:02:17;;;;;;;1.10;0.90;;;;;;;;;;101209;301;22577;-32
2023/07/08 11:04:55;;;;;;;1.00;0.90;;;;;;;;;;101064;301;22976;-32
2023/07/08 11:07:37;;;;;;;2.00;0.80;;;;;;;;;;101008;301;22793;-32
2023/07/08 11:10:05;;;;;;;1.80;0.90;;;;;;;;;;101186;301;25292;-35
2023/07/08 11:12:33;;;;;;;1.20;1.00;;;;;;;;;;101476;297;23988;-31
2023/07/08 11:15:10;;;;;;;1.70;1.30;;;;;;;;;;101550;297;22584;-32
2023/07/08 11:17:37;;;;;;;1.90;1.30;;;;;;;;;;101375;297;22581;-33
2023/07/08 11:20:15;;;;;;;5.00;1.40;;;;;;;;;;101466;297;22805;-35
2023/07/08 11:22:45;;;;;;;2.00;1.40;;;;;;;;;;101513;297;22660;-35
2023/07/08 11:25:15;;;;;;;2.30;0.70;;;;;;;;;;101483;297;22577;-33
2023/07/08 11:27:41;;;;;;;4.70;1.20;;;;;;;;;;101423;297;22699;-33
2023/07/08 11:30:16;;;;;;;1.00;0.90;;;;;;;;;;101314;297;22681;-31
2023/07/08 11:32:42;;;;;;;1.90;1.00;;;;;;;;;;101337;297;22990;-35
2023/07/08 11:35:13;;;;;;;1.70;1.10;;;;;;;;;;101390;298;23034;-35
2023/07/08 11:37:39;;;;;;;3.30;1.00;;;;;;;;;;101345;298;24196;-35
2023/07/08 11:40:07;;;;;;;1.70;1.10;;;;;;;;;;101234;288;22738;-33
2023/07/08 11:42:40;;;;;;;2.50;0.80;;;;;;;;;;101442;298;24256;-36
2023/07/08 11:45:08;;;;;;;1.20;1.00;;;;;;;;;;101366;298;25477;-36
2023/07/08 11:47:40;;;;;;;1.70;1.10;;;;;;;;;;101432;297;22772;-36
2023/07/08 11:50:18;;;;;;;1.70;1.20;;;;;;;;;;101302;288;22594;-35
2023/07/08 11:52:54;;;;;;;2.40;1.10;;;;;;;;;;101488;298;22583;-32
2023/07/08 11:55:22;;;;;;;2.10;1.20;;;;;;;;;;101374;298;22580;-35
2023/07/08 11:57:47;;;;;;;1.00;0.90;;;;;;;;;;101438;298;24197;-38
2023/07/08 12:00:14;;;;;;;3.40;0.80;;;;;;;;;;101364;289;22645;-37
2023/07/08 12:02:51;;;;;;;1.00;1.00;;;;;;;;;;101456;298;22889;-31
2023/07/08 12:05:17;;;;;;;1.40;1.30;;;;;;;;;;101266;286;22589;-35
2023/07/08 12:07:45;;;;;;;1.50;1.20;;;;;;;;;;101341;298;22807;-31
2023/07/08 12:10:13;;;;;;;2.30;1.00;;;;;;;;;;101309;298;22579;-31
2023/07/08 12:12:40;;;;;;;1.00;0.70;;;;;;;;;;101378;298;24185;-35
2023/07/08 12:15:12;;;;;;;1.90;1.00;;;;;;;;;;101291;298;22575;-38
2023/07/08 12:17:38;;;;;;;2.30;1.50;;;;;;;;;;101424;298;24239;-35
2023/07/08 12:20:04;;;;;;;1.50;0.90;;;;;;;;;;101424;298;22676;-38
2023/07/08 12:22:29;;;;;;;1.30;0.90;;;;;;;;;;101381;298;24250;-35
2023/07/08 12:24:55;;;;;;;1.30;0.90;;;;;;;;;;101348;286;22847;-32
2023/07/08 12:27:21;;;;;;;2.50;1.70;;;;;;;;;;101478;298;22886;-32
2023/07/08 12:29:46;;;;;;;1.50;0.90;;;;;;;;;;101396;290;22543;-34
2023/07/08 12:32:13;;;;;;;1.60;1.20;;;;;;;;;;101393;298;23037;-35
2023/07/08 12:34:39;;;;;;;3.10;1.00;;;;;;;;;;101400;298;24141;-35
2023/07/08 13:16:14;;;;;;;1.20;1.00;;;;;;;-95.58;3.46;19957.89;98088;294;1547182;-33
2023/07/08 13:18:40;;;;;;;2.70;1.20;;;;;;;-128.00;-1.00;-1.00;97354;296;1004776;-37
2023/07/08 13:21:07;;;;;;;1.60;1.20;;;;;;;-128.00;-1.00;-1.00;97616;297;1005246;-36
2023/07/08 13:23:32;;;;;;;1.40;0.90;;;;;;;-128.00;-1.00;-1.00;97739;295;1005416;-35
2023/07/08 13:25:58;;;;;;;10.30;1.60;;;;;;;-128.00;-1.00;-1.00;97626;294;1005748;-32
2023/07/08 13:28:29;;;;;;;1.70;1.10;;;;;;;-128.00;-1.00;-1.00;97682;295;1005653;-32
2023/07/08 13:30:57;;;;;;;0.80;0.60;;;;;;;-128.00;-1.00;-1.00;97723;295;1005642;-35
2023/07/08 13:33:23;;;;;;;1.00;0.70;;;;;;;-128.00;-1.00;-1.00;97832;294;1004864;-31
2023/07/08 13:35:50;;;;;;;1.50;0.70;;;;;;;-128.00;-1.00;-1.00;97659;283;1004858;-35
2023/07/08 13:38:18;;;;;;;0.80;0.70;;;;;;;-128.00;-1.00;-1.00;97719;294;1004866;-31
2023/07/08 13:40:46;;;;;;;1.50;0.90;;;;;;;-128.00;-1.00;-1.00;97680;295;1006213;-36
2023/07/08 13:43:12;;;;;;;8.70;2.40;;;;;;;-128.00;-1.00;-1.00;97676;295;1004544;-32
2023/07/08 13:45:38;;;;;;;2.90;1.00;;;;;;;-128.00;-1.00;-1.00;97638;295;1004864;-37
2023/07/08 13:48:12;;;;;;;1.10;0.80;;;;;;;-128.00;-1.00;-1.00;97645;295;1004864;-35
2023/07/08 13:50:46;;;;;;;0.70;0.60;;;;;;;-128.00;-1.00;-1.00;97661;295;1005404;-33
2023/07/08 13:53:20;;;;;;;0.70;0.70;;;;;;;-128.00;-1.00;-1.00;97562;294;1005753;-31